Time;durP1;ratioP1;P1;durP2;ratioP2;P2;SDS_P1;SDS_P2;PMS_P1;PMS_P2;Temp;Humidity;BMP_temperature;BMP_pressure;BME280_temperature;BME280_humidity;BME280_pressure;Samples;Min_cycle;Max_cycle;Signal;HPM_P1;HPM_P2
2022/12/14 00:00:13;;;;;;;11.70;10.80;;;;;;;-5.10;72.60;100608.41;4162966;28;20759;-54
2022/12/14 00:02:17;;;;;;;10.32;9.50;;;;;;;-5.15;72.73;100603.38;4163679;28;20231;-53
2022/12/14 00:04:20;;;;;;;9.13;8.45;;;;;;;-5.19;73.06;100604.47;4168831;28;20299;-55
2022/12/14 00:06:30;;;;;;;11.77;10.88;;;;;;;-5.16;73.16;100585.88;4168733;28;20319;-54
2022/12/14 00:08:33;;;;;;;10.55;9.68;;;;;;;-5.10;73.17;100592.59;4163689;28;20200;-57
2022/12/14 00:10:36;;;;;;;10.80;10.00;;;;;;;-5.10;73.18;100585.53;4162968;28;20247;-57
2022/12/14 00:12:39;;;;;;;10.30;9.50;;;;;;;-5.07;73.02;100577.47;4163365;28;20296;-55
2022/12/14 00:14:41;;;;;;;9.85;9.10;;;;;;;-5.02;73.11;100579.03;4162705;28;20306;-54
2022/12/14 00:16:43;;;;;;;9.27;8.57;;;;;;;-4.95;72.91;100569.88;4161409;28;20312;-55
2022/12/14 00:18:49;;;;;;;9.55;8.85;;;;;;;-4.93;73.09;100576.75;4163004;28;20295;-55
2022/12/14 00:20:53;;;;;;;10.52;9.82;;;;;;;-4.95;72.13;100570.72;4161914;28;20316;-54
2022/12/14 00:22:56;;;;;;;9.60;8.90;;;;;;;-5.04;72.08;100563.31;4163783;28;20275;-53
2022/12/14 00:24:58;;;;;;;13.75;12.45;;;;;;;-5.08;72.31;100569.66;4161872;28;20273;-57
2022/12/14 00:27:00;;;;;;;9.13;8.45;;;;;;;-5.07;72.76;100564.31;4153141;28;20656;-56
2022/12/14 00:29:03;;;;;;;8.85;8.25;;;;;;;-5.05;72.84;100563.41;4171282;28;20237;-57
2022/12/14 00:31:06;;;;;;;9.43;8.73;;;;;;;-5.00;72.60;100570.13;4165791;28;20319;-57
2022/12/14 00:33:08;;;;;;;9.13;8.45;;;;;;;-5.00;72.51;100559.59;4163402;28;20285;-54
2022/12/14 00:35:13;;;;;;;11.13;10.27;;;;;;;-4.97;72.55;100566.47;4161761;28;20315;-54
2022/12/14 00:37:16;;;;;;;9.95;9.23;;;;;;;-5.02;72.14;100565.88;4163166;28;20278;-53
2022/12/14 00:39:18;;;;;;;10.30;9.55;;;;;;;-5.11;71.77;100559.28;4163625;28;20311;-56
2022/12/14 00:41:21;;;;;;;9.27;8.57;;;;;;;-5.19;72.13;100561.47;4162519;28;20666;-55
2022/12/14 00:43:24;;;;;;;8.88;8.27;;;;;;;-5.20;72.46;100557.13;4163496;28;20297;-56
2022/12/14 00:45:26;;;;;;;9.57;8.85;;;;;;;-5.20;72.44;100565.91;4161185;28;20648;-54
2022/12/14 00:47:28;;;;;;;10.63;9.73;;;;;;;-5.18;72.50;100565.84;4162776;28;20312;-56
2022/12/14 00:49:31;;;;;;;145.85;36.45;;;;;;;-5.17;72.63;100556.97;4176455;28;20240;-54
2022/12/14 00:51:33;;;;;;;139.50;35.53;;;;;;;-5.16;72.51;100564.78;4162048;28;20314;-53
2022/12/14 00:53:37;;;;;;;130.67;33.57;;;;;;;-5.12;72.60;100562.88;4167872;28;20799;-53
2022/12/14 00:55:40;;;;;;;30.60;19.37;;;;;;;-5.11;72.38;100559.28;4165239;28;20746;-57
2022/12/14 00:57:42;;;;;;;9.27;8.40;;;;;;;-5.04;72.25;100563.31;4178081;28;20278;-53
2022/12/14 00:59:44;;;;;;;139.23;124.50;;;;;;;-4.97;72.02;100564.69;4178125;28;20302;-54
2022/12/14 01:01:47;;;;;;;73.73;69.93;;;;;;;-4.93;71.68;100563.59;4165522;28;20314;-53
2022/12/14 01:03:49;;;;;;;295.43;265.13;;;;;;;-4.98;71.36;100565.63;4176552;28;20281;-57
2022/12/14 01:05:51;;;;;;;176.23;164.50;;;;;;;-4.95;71.57;100567.25;4172413;28;20315;-52
2022/12/14 01:07:53;;;;;;;442.37;233.70;;;;;;;-4.92;71.26;100567.06;4162771;28;20298;-54
2022/12/14 01:09:57;;;;;;;445.50;246.90;;;;;;;-4.99;71.00;100561.28;4162853;28;20223;-52
2022/12/14 01:11:59;;;;;;;474.37;332.73;;;;;;;-5.00;71.21;100558.72;4163860;28;20342;-52
2022/12/14 01:14:02;;;;;;;465.13;309.23;;;;;;;-4.97;71.45;100556.81;4178866;28;20298;-54
2022/12/14 01:16:05;;;;;;;417.97;196.83;;;;;;;-4.91;71.54;100552.97;4167664;28;20310;-55
2022/12/14 01:18:08;;;;;;;434.30;219.50;;;;;;;-4.87;71.29;100543.97;4162958;28;20278;-53
2022/12/14 01:20:11;;;;;;;434.40;219.03;;;;;;;-4.87;70.94;100541.34;4147652;28;20310;-54
2022/12/14 01:22:14;;;;;;;459.07;300.17;;;;;;;-4.87;71.05;100549.25;4162800;28;20302;-54
2022/12/14 01:24:16;;;;;;;9.70;8.83;;;;;;;-4.89;70.94;100551.09;4162501;28;20285;-54
2022/12/14 01:26:20;;;;;;;1.10;1.10;;;;;;;-4.91;70.81;100551.16;4152600;28;20781;-53
2022/12/14 01:28:22;;;;;;;1.00;1.00;;;;;;;-4.91;70.74;100551.16;4166046;28;20758;-53
2022/12/14 01:30:24;;;;;;;1.00;1.00;;;;;;;-4.93;70.80;100546.94;4164788;28;20231;-53
2022/12/14 01:32:27;;;;;;;468.77;351.57;;;;;;;-4.93;70.75;100539.88;4166123;28;20283;-55
2022/12/14 01:34:30;;;;;;;453.30;275.07;;;;;;;-4.94;70.53;100534.69;4165682;28;20607;-56
2022/12/14 01:36:34;;;;;;;442.37;245.40;;;;;;;-5.01;70.63;100526.28;4164354;28;20638;-54
2022/12/14 01:38:36;;;;;;;445.63;251.70;;;;;;;-4.94;70.34;100540.84;4166033;28;20290;-53
2022/12/14 01:40:38;;;;;;;433.10;229.93;;;;;;;-4.95;70.66;100533.00;4164663;28;20309;-55
2022/12/14 01:42:42;;;;;;;440.83;248.57;;;;;;;-4.96;70.66;100531.31;4166151;28;20286;-54
2022/12/14 01:44:56;;;;;;;447.30;265.33;;;;;;;-4.93;70.50;100537.25;4162417;28;20284;-53
2022/12/14 01:47:04;;;;;;;451.07;284.53;;;;;;;-4.89;70.56;100544.06;4164441;28;20637;-54
2022/12/14 01:49:12;;;;;;;458.97;312.80;;;;;;;-5.00;70.19;100541.16;4166140;28;20301;-54
2022/12/14 01:51:15;;;;;;;474.87;347.97;;;;;;;-5.07;70.15;100542.41;4158031;28;20226;-56
2022/12/14 01:53:20;;;;;;;461.47;300.17;;;;;;;-5.10;70.14;100534.66;4162133;28;20274;-53
2022/12/14 01:55:25;;;;;;;460.83;320.93;;;;;;;-5.14;70.18;100541.88;4168958;28;20315;-57
2022/12/14 01:57:30;;;;;;;456.90;299.90;;;;;;;-5.17;70.19;100533.28;4155860;28;20278;-54
2022/12/14 01:59:35;;;;;;;436.90;228.37;;;;;;;-5.26;70.38;100518.84;4181652;28;20309;-54
2022/12/14 02:01:38;;;;;;;237.23;135.23;;;;;;;-5.24;70.65;100527.50;4180826;28;20317;-56
2022/12/14 02:03:43;;;;;;;413.13;387.33;;;;;;;-5.18;71.04;100527.16;4179734;28;20290;-56
2022/12/14 02:05:47;;;;;;;469.20;328.13;;;;;;;-5.10;70.87;100518.88;4176217;28;20757;-53
2022/12/14 02:07:50;;;;;;;454.47;301.27;;;;;;;-5.05;70.77;100526.53;4165285;28;20311;-58
2022/12/14 02:09:52;;;;;;;320.17;285.20;;;;;;;-5.03;70.40;100525.53;4165630;28;20331;-57
2022/12/14 02:11:58;;;;;;;458.87;305.77;;;;;;;-5.03;70.24;100524.66;4178832;28;21035;-57
2022/12/14 02:14:00;;;;;;;434.80;247.37;;;;;;;-5.05;70.12;100527.38;4176137;28;20287;-59
2022/12/14 02:16:04;;;;;;;442.33;280.40;;;;;;;-5.08;70.47;100525.75;4163610;28;20322;-57
2022/12/14 02:18:08;;;;;;;469.40;335.00;;;;;;;-5.11;69.92;100528.56;4178007;28;20618;-58
2022/12/14 02:20:12;;;;;;;445.80;262.90;;;;;;;-5.20;70.17;100521.16;4180100;28;20293;-56
2022/12/14 02:22:37;;;;;;;488.50;443.20;;;;;;;-5.20;70.18;100531.69;4169863;28;20278;-56
2022/12/14 02:25:03;;;;;;;457.60;280.70;;;;;;;-5.25;70.41;100537.19;4167042;28;20278;-59
2022/12/14 02:27:12;;;;;;;499.27;394.47;;;;;;;-5.27;70.42;100530.28;4163047;28;20637;-54
2022/12/14 02:29:35;;;;;;;469.37;311.77;;;;;;;-5.23;70.42;100530.97;4164823;28;20315;-56
2022/12/14 02:31:42;;;;;;;457.47;293.77;;;;;;;-5.20;70.29;100530.81;4157655;28;20675;-55
2022/12/14 02:33:48;;;;;;;459.37;321.40;;;;;;;-5.29;69.95;100521.63;4165252;28;20240;-58
2022/12/14 02:35:55;;;;;;;443.90;262.30;;;;;;;-5.31;70.02;100526.97;4132373;28;20716;-54
2022/12/14 02:38:05;;;;;;;442.10;262.27;;;;;;;-5.31;70.17;100528.78;4172137;28;20275;-57
2022/12/14 02:40:22;;;;;;;433.90;245.33;;;;;;;-5.33;70.00;100527.97;4165151;28;20310;-59
2022/12/14 02:42:32;;;;;;;427.27;228.83;;;;;;;-5.32;70.11;100527.06;4165152;28;20219;-59
2022/12/14 02:44:43;;;;;;;427.77;232.43;;;;;;;-5.36;70.32;100521.13;4164697;28;20740;-58
2022/12/14 02:46:51;;;;;;;449.73;287.63;;;;;;;-5.35;70.34;100512.25;4163386;28;20901;-59
2022/12/14 02:48:59;;;;;;;452.63;300.67;;;;;;;-5.34;69.97;100519.25;4164817;28;20656;-59
2022/12/14 02:51:06;;;;;;;440.67;260.27;;;;;;;-5.36;70.06;100520.25;4164321;28;20326;-54
2022/12/14 02:53:14;;;;;;;433.03;240.60;;;;;;;-5.40;70.08;100514.28;4157464;28;20938;-59
2022/12/14 02:55:22;;;;;;;439.33;257.57;;;;;;;-5.37;70.33;100522.03;4160439;28;20211;-58
2022/12/14 02:57:27;;;;;;;437.13;253.87;;;;;;;-5.41;70.13;100522.28;4165862;28;20270;-58
2022/12/14 02:59:30;;;;;;;429.10;232.37;;;;;;;-5.44;70.09;100520.63;4165363;28;20307;-57
2022/12/14 03:01:34;;;;;;;412.97;190.10;;;;;;;-5.43;70.11;100522.34;4179767;28;20981;-57
2022/12/14 03:03:37;;;;;;;420.93;216.73;;;;;;;-5.51;69.97;100509.59;4180610;28;20282;-57
2022/12/14 03:05:39;;;;;;;458.20;310.60;;;;;;;-5.51;70.24;100514.84;4167449;28;20411;-56
2022/12/14 03:07:45;;;;;;;461.57;315.97;;;;;;;-5.54;70.27;100512.38;4164183;28;20286;-56
2022/12/14 03:09:48;;;;;;;451.27;288.43;;;;;;;-5.59;70.13;100506.50;4169835;28;20305;-59
2022/12/14 03:11:55;;;;;;;470.27;342.07;;;;;;;-5.57;70.24;100503.81;4180015;28;20235;-58
2022/12/14 03:14:01;;;;;;;507.20;451.10;;;;;;;-5.63;70.10;100503.19;4180160;28;20210;-54
2022/12/14 03:16:07;;;;;;;461.87;315.87;;;;;;;-5.63;70.47;100499.69;4162396;28;20315;-57
2022/12/14 03:18:12;;;;;;;448.73;271.53;;;;;;;-5.63;70.37;100495.31;4171568;28;20290;-57
2022/12/14 03:20:19;;;;;;;427.70;228.60;;;;;;;-5.60;70.19;100494.28;4179338;28;20310;-59
2022/12/14 03:22:25;;;;;;;430.07;243.57;;;;;;;-5.68;70.18;100489.41;4161845;28;21163;-55
2022/12/14 03:24:30;;;;;;;474.37;351.90;;;;;;;-5.66;70.28;100497.22;4164733;28;20296;-58
2022/12/14 03:26:34;;;;;;;447.37;277.10;;;;;;;-5.64;70.22;100493.59;4160621;28;20262;-60
2022/12/14 03:28:41;;;;;;;449.17;279.07;;;;;;;-5.72;70.00;100485.25;4179534;28;20279;-60
2022/12/14 03:30:49;;;;;;;458.63;297.90;;;;;;;-5.77;70.41;100487.25;4166768;28;20298;-60
2022/12/14 03:32:53;;;;;;;462.90;305.60;;;;;;;-5.84;70.34;100488.50;4166102;28;20227;-59
2022/12/14 03:35:00;;;;;;;462.00;301.87;;;;;;;-5.85;70.56;100481.53;4163126;28;20306;-59
2022/12/14 03:37:06;;;;;;;446.30;265.13;;;;;;;-5.87;70.78;100476.34;4159462;28;20674;-59
2022/12/14 03:39:11;;;;;;;441.80;258.70;;;;;;;-5.84;70.55;100475.34;4163734;28;20638;-58
2022/12/14 03:41:19;;;;;;;448.50;281.93;;;;;;;-5.83;70.45;100477.91;4163614;28;20745;-57
2022/12/14 03:43:26;;;;;;;440.03;255.80;;;;;;;-5.88;70.20;100479.06;4175807;28;20302;-59
2022/12/14 03:45:31;;;;;;;446.67;284.07;;;;;;;-5.92;70.35;100475.75;4167289;28;20321;-59
2022/12/14 03:47:46;;;;;;;448.37;287.40;;;;;;;-5.89;70.46;100477.34;4180058;28;20306;-59
2022/12/14 03:49:57;;;;;;;452.00;299.90;;;;;;;-5.88;70.41;100469.38;4174925;28;20752;-57
2022/12/14 03:52:03;;;;;;;450.43;290.23;;;;;;;-5.91;70.36;100469.53;4167315;28;20606;-59
2022/12/14 03:54:09;;;;;;;438.43;249.10;;;;;;;-5.91;70.35;100469.53;4172439;28;20278;-57
2022/12/14 03:56:16;;;;;;;440.70;259.20;;;;;;;-5.94;70.18;100467.09;4157115;28;20315;-56
2022/12/14 03:58:25;;;;;;;440.90;268.33;;;;;;;-5.96;70.18;100465.50;4155462;28;20210;-57
2022/12/14 04:00:29;;;;;;;442.17;275.90;;;;;;;-6.05;70.45;100446.63;4178765;28;20668;-58
2022/12/14 04:02:35;;;;;;;435.40;255.03;;;;;;;-5.98;70.23;100460.31;4179286;28;20628;-57
2022/12/14 04:04:39;;;;;;;431.23;251.93;;;;;;;-5.97;70.06;100462.03;4178923;28;20283;-56
2022/12/14 04:06:46;;;;;;;430.77;252.23;;;;;;;-6.01;69.92;100463.94;4177812;28;20309;-58
2022/12/14 04:08:53;;;;;;;430.57;245.57;;;;;;;-6.08;70.09;100459.06;4178588;28;20282;-57
2022/12/14 04:20:27;;;;;;;432.30;259.23;;;;;;;-6.05;70.52;100453.66;4178109;28;20237;-58
2022/12/14 04:22:37;;;;;;;423.73;226.37;;;;;;;-6.11;70.17;100435.56;4163435;28;20230;-55
2022/12/14 04:27:08;;;;;;;447.53;275.87;;;;;;;-6.11;70.16;100428.53;4165344;28;20330;-58
2022/12/14 04:31:33;;;;;;;436.60;244.63;;;;;;;-6.06;70.02;100436.19;4163202;28;20334;-57
2022/12/14 04:33:46;;;;;;;440.97;264.10;;;;;;;-6.05;70.17;100436.13;4169022;28;20725;-53
2022/12/14 04:35:49;;;;;;;439.83;258.00;;;;;;;-6.04;69.99;100437.78;4155928;28;20334;-54
2022/12/14 04:37:55;;;;;;;436.23;253.93;;;;;;;-6.03;69.89;100431.63;4177353;28;20277;-56
2022/12/14 04:40:04;;;;;;;433.20;248.37;;;;;;;-6.03;69.87;100428.97;4175740;28;20305;-57
2022/12/14 04:42:08;;;;;;;434.53;250.73;;;;;;;-6.06;69.99;100426.50;4153653;28;20226;-54
2022/12/14 04:44:13;;;;;;;430.77;236.13;;;;;;;-6.09;70.00;100434.56;4178985;28;20275;-55
2022/12/14 04:46:17;;;;;;;431.83;240.23;;;;;;;-6.08;70.14;100427.50;4177201;28;20314;-54
2022/12/14 04:48:24;;;;;;;430.27;238.73;;;;;;;-6.09;69.97;100421.41;4178269;28;20737;-53
2022/12/14 04:50:35;;;;;;;433.20;259.13;;;;;;;-6.12;69.84;100428.63;4168391;28;20330;-54
2022/12/14 04:52:48;;;;;;;432.50;237.57;;;;;;;-6.12;70.29;100428.63;4153019;28;20262;-55
2022/12/14 04:54:55;;;;;;;430.60;244.70;;;;;;;-6.10;70.24;100424.13;4171650;28;20278;-55
2022/12/14 04:57:00;;;;;;;439.87;265.87;;;;;;;-6.08;70.15;100419.63;4170594;28;20651;-57
2022/12/14 04:59:02;;;;;;;439.70;260.43;;;;;;;-6.10;70.06;100414.44;4174753;28;20310;-55
2022/12/14 05:01:22;;;;;;;458.40;321.00;;;;;;;-6.17;70.10;100408.66;4164067;28;20318;-59
2022/12/14 05:03:27;;;;;;;456.70;304.77;;;;;;;-6.22;70.16;100404.53;4164499;28;20203;-53
2022/12/14 05:05:37;;;;;;;455.33;296.53;;;;;;;-6.26;70.26;100395.97;4167070;28;20319;-57
2022/12/14 05:07:46;;;;;;;459.73;317.63;;;;;;;-6.16;70.47;100401.59;4159539;28;20282;-54
2022/12/14 05:09:56;;;;;;;454.93;297.23;;;;;;;-6.18;70.09;100409.56;4162932;28;20748;-58
2022/12/14 05:12:04;;;;;;;458.53;304.43;;;;;;;-6.22;70.32;100404.53;4169025;28;20774;-54
2022/12/14 05:14:10;;;;;;;463.87;325.67;;;;;;;-6.35;70.16;100399.06;4171692;28;20279;-57
2022/12/14 05:16:15;;;;;;;457.93;303.03;;;;;;;-6.38;70.34;100401.84;4167267;28;20314;-56
2022/12/14 05:18:17;;;;;;;455.40;287.33;;;;;;;-6.43;70.57;100394.19;4169999;28;20219;-54
2022/12/14 05:20:22;;;;;;;454.30;294.73;;;;;;;-6.41;70.78;100387.09;4171215;28;20326;-53
2022/12/14 05:22:24;;;;;;;453.93;296.33;;;;;;;-6.36;70.81;100394.75;4170351;28;20285;-57
2022/12/14 05:24:26;;;;;;;447.63;276.90;;;;;;;-6.31;70.81;100389.28;4169292;28;20241;-59
2022/12/14 05:26:31;;;;;;;446.10;273.97;;;;;;;-6.29;70.35;100385.63;4159945;28;20314;-58
2022/12/14 05:28:33;;;;;;;443.47;267.53;;;;;;;-6.25;70.57;100381.91;4165528;28;20295;-56
2022/12/14 05:30:35;;;;;;;431.43;218.40;;;;;;;-6.22;70.45;100379.13;4162429;28;20411;-58
2022/12/14 05:32:38;;;;;;;438.57;250.07;;;;;;;-6.21;70.18;100370.28;4161677;28;20294;-56
2022/12/14 05:34:40;;;;;;;438.53;265.30;;;;;;;-6.25;70.02;100381.06;4160666;28;20314;-57
2022/12/14 05:36:43;;;;;;;436.43;252.63;;;;;;;-6.31;70.05;100374.34;4163916;28;20664;-58
2022/12/14 05:38:45;;;;;;;523.17;472.37;;;;;;;-6.31;70.23;100370.88;4167272;28;20288;-58
2022/12/14 05:40:47;;;;;;;505.37;454.33;;;;;;;-6.27;70.18;100375.91;4176787;28;20318;-58
2022/12/14 05:42:51;;;;;;;495.90;413.47;;;;;;;-6.24;70.14;100365.19;4174825;28;20705;-56
2022/12/14 05:44:53;;;;;;;500.73;412.87;;;;;;;-6.26;69.89;100353.91;4160465;28;20207;-57
2022/12/14 05:46:56;;;;;;;496.83;401.47;;;;;;;-6.29;70.08;100353.22;4153647;28;20310;-56
2022/12/14 05:48:58;;;;;;;494.13;417.40;;;;;;;-6.31;70.36;100345.44;4162305;28;20298;-58
2022/12/14 05:51:05;;;;;;;496.03;403.97;;;;;;;-6.31;70.02;100339.34;4163243;28;20331;-57
2022/12/14 05:53:07;;;;;;;524.03;469.50;;;;;;;-6.35;70.43;100339.50;4162834;28;20282;-58
2022/12/14 05:55:09;;;;;;;548.17;490.10;;;;;;;-6.35;70.33;100341.25;4162380;28;20632;-56
2022/12/14 05:57:12;;;;;;;515.57;454.20;;;;;;;-6.34;70.14;100335.06;4166141;28;20279;-58
2022/12/14 05:59:16;;;;;;;503.93;433.60;;;;;;;-6.38;70.51;100328.25;4164500;28;20347;-55
2022/12/14 06:01:18;;;;;;;83.90;75.90;;;;;;;-6.38;70.35;100317.75;4159663;28;20319;-57
2022/12/14 06:03:21;;;;;;;464.30;422.30;;;;;;;-6.35;70.38;100320.22;4175619;28;20290;-58
2022/12/14 06:05:23;;;;;;;502.73;409.83;;;;;;;-6.37;70.21;100327.34;4175582;28;20226;-55
2022/12/14 06:07:25;;;;;;;482.67;365.27;;;;;;;-6.42;70.27;100324.13;4176516;28;20278;-57
2022/12/14 06:09:28;;;;;;;478.80;352.63;;;;;;;-6.40;70.64;100327.50;4172952;28;20309;-55
2022/12/14 06:11:30;;;;;;;506.33;438.53;;;;;;;-6.43;70.52;100330.28;4164846;28;20326;-57
2022/12/14 06:13:32;;;;;;;513.07;447.00;;;;;;;-6.43;70.47;100335.53;4179246;28;20314;-59
2022/12/14 06:15:36;;;;;;;497.67;415.03;;;;;;;-6.41;70.49;100329.28;4177929;28;20318;-58
2022/12/14 06:17:42;;;;;;;458.27;374.33;;;;;;;-6.40;70.15;100338.00;4176068;28;20322;-59
2022/12/14 06:19:45;;;;;;;430.40;228.73;;;;;;;-6.37;70.40;100338.69;4170596;28;20757;-59
2022/12/14 06:21:47;;;;;;;439.43;247.50;;;;;;;-6.40;70.26;100324.88;4154585;28;20733;-55
2022/12/14 06:23:49;;;;;;;470.33;419.53;;;;;;;-6.43;70.42;100325.03;4169833;28;20287;-57
2022/12/14 06:25:53;;;;;;;450.57;295.07;;;;;;;-6.45;70.47;100322.47;4164737;28;20780;-58
2022/12/14 06:27:55;;;;;;;458.70;314.90;;;;;;;-6.43;70.59;100322.41;4167410;28;20302;-59
2022/12/14 06:29:58;;;;;;;455.60;300.60;;;;;;;-6.41;70.76;100325.78;4166995;28;20286;-57
2022/12/14 06:32:02;;;;;;;423.40;390.63;;;;;;;-6.40;70.45;100325.72;4165514;28;20667;-56
2022/12/14 06:34:05;;;;;;;367.53;338.03;;;;;;;-6.39;70.38;100323.97;4176748;28;20295;-59
2022/12/14 06:36:12;;;;;;;475.10;422.83;;;;;;;-6.41;70.66;100321.41;4163448;28;20757;-56
2022/12/14 06:38:14;;;;;;;434.27;401.47;;;;;;;-6.42;70.29;100316.22;4169270;28;20291;-57
2022/12/14 06:40:17;;;;;;;488.77;422.10;;;;;;;-6.42;70.56;100332.84;4177394;28;20634;-58
2022/12/14 06:42:19;;;;;;;493.40;395.50;;;;;;;-6.45;70.47;100319.00;4165225;28;20250;-58
2022/12/14 06:44:21;;;;;;;464.27;326.33;;;;;;;-6.47;70.70;100320.84;4172798;28;20298;-55
2022/12/14 06:46:24;;;;;;;439.10;262.90;;;;;;;-6.48;70.90;100312.13;4178982;28;20227;-55
2022/12/14 06:48:28;;;;;;;460.00;323.17;;;;;;;-6.49;70.93;100310.41;4167170;28;20333;-57
2022/12/14 06:50:31;;;;;;;465.73;334.73;;;;;;;-6.47;70.94;100302.47;4175826;28;20317;-54
2022/12/14 06:52:33;;;;;;;466.23;326.93;;;;;;;-6.44;70.98;100300.53;4179296;28;20290;-53
2022/12/14 06:54:35;;;;;;;479.10;359.03;;;;;;;-6.40;70.97;100306.47;4179752;28;20286;-57
2022/12/14 06:56:38;;;;;;;457.00;313.73;;;;;;;-6.37;70.66;100303.69;4164453;28;20674;-58
2022/12/14 06:58:40;;;;;;;47.53;44.77;;;;;;;-6.39;70.57;100306.41;4175141;28;20223;-60
2022/12/14 07:00:43;;;;;;;362.37;331.00;;;;;;;-6.37;70.72;100304.53;4175799;28;20246;-58
2022/12/14 07:02:45;;;;;;;507.97;455.53;;;;;;;-6.37;70.50;100307.16;4181934;28;20219;-57
2022/12/14 07:04:49;;;;;;;460.90;325.03;;;;;;;-6.35;70.28;100299.19;4180430;28;20735;-59
2022/12/14 07:06:51;;;;;;;422.37;224.03;;;;;;;-6.32;70.52;100306.09;4179530;28;20219;-57
2022/12/14 07:08:55;;;;;;;464.63;323.00;;;;;;;-6.32;70.48;100303.47;4179837;28;20930;-57
2022/12/14 07:11:01;;;;;;;454.20;307.37;;;;;;;-6.33;70.44;100294.72;4179142;28;20908;-58
2022/12/14 07:13:03;;;;;;;462.40;320.63;;;;;;;-6.33;70.24;100292.09;4175620;28;20287;-55
2022/12/14 07:15:06;;;;;;;486.27;367.83;;;;;;;-6.31;70.46;100298.13;4171013;28;20604;-58
2022/12/14 07:17:09;;;;;;;469.83;340.20;;;;;;;-6.34;70.48;100287.78;4179723;28;20314;-57
2022/12/14 07:19:11;;;;;;;459.70;307.13;;;;;;;-6.27;70.45;100291.78;4177410;28;20303;-58
2022/12/14 07:21:16;;;;;;;471.63;346.83;;;;;;;-6.23;70.30;100285.41;4161316;28;20319;-57
2022/12/14 07:23:19;;;;;;;456.67;308.20;;;;;;;-6.20;70.35;100294.94;4164680;28;20365;-56
2022/12/14 07:25:21;;;;;;;472.93;361.50;;;;;;;-6.19;70.25;100286.97;4166716;28;20319;-57
2022/12/14 07:27:24;;;;;;;463.37;318.30;;;;;;;-6.17;70.11;100285.09;4163762;28;20219;-56
2022/12/14 07:29:27;;;;;;;468.77;345.23;;;;;;;-6.17;70.12;100284.25;4168981;28;20298;-56
2022/12/14 07:31:29;;;;;;;459.50;310.07;;;;;;;-6.16;69.98;100278.06;4166285;28;20306;-56
2022/12/14 07:33:31;;;;;;;455.73;308.83;;;;;;;-6.17;69.63;100274.59;4171673;28;20718;-57
2022/12/14 07:35:33;;;;;;;480.60;363.43;;;;;;;-6.16;69.84;100278.06;4176156;28;20315;-55
2022/12/14 07:37:37;;;;;;;474.37;357.67;;;;;;;-6.19;69.85;100271.19;4175760;28;20287;-55
2022/12/14 07:39:39;;;;;;;462.20;332.47;;;;;;;-6.20;69.87;100263.38;4169584;28;20302;-57
2022/12/14 07:41:42;;;;;;;452.60;280.40;;;;;;;-6.21;69.89;100261.69;4161773;28;20345;-55
2022/12/14 07:43:45;;;;;;;447.83;274.13;;;;;;;-6.20;70.00;100260.75;4175778;28;20275;-57
2022/12/14 07:45:47;;;;;;;445.60;263.27;;;;;;;-6.16;69.67;100267.53;4175969;28;20314;-55
2022/12/14 07:47:49;;;;;;;439.70;238.00;;;;;;;-6.19;69.85;100260.69;4177091;28;20198;-57
2022/12/14 07:49:51;;;;;;;427.73;215.47;;;;;;;-6.16;69.82;100265.78;4168981;28;20303;-57
2022/12/14 07:51:54;;;;;;;444.13;261.37;;;;;;;-6.14;69.76;100273.59;4171166;28;20331;-54
2022/12/14 07:53:58;;;;;;;461.43;302.10;;;;;;;-6.12;69.62;100265.63;4176787;28;20286;-56
2022/12/14 07:56:03;;;;;;;446.03;257.23;;;;;;;-6.13;69.84;100270.00;4175445;28;20301;-57
2022/12/14 07:58:05;;;;;;;450.90;274.23;;;;;;;-6.13;69.63;100270.00;4174303;28;20656;-56
2022/12/14 08:00:09;;;;;;;466.33;320.03;;;;;;;-6.11;69.67;100273.41;4176293;28;20640;-55
2022/12/14 08:02:14;;;;;;;459.07;301.30;;;;;;;-6.16;69.88;100271.03;4177575;28;20701;-56
2022/12/14 08:04:18;;;;;;;459.70;292.80;;;;;;;-6.11;70.15;100273.41;4166384;28;20284;-57
2022/12/14 08:06:23;;;;;;;464.20;322.20;;;;;;;-6.09;70.47;100273.34;4161171;28;20319;-56
2022/12/14 08:08:25;;;;;;;462.43;329.47;;;;;;;-6.04;70.39;100268.66;4162619;28;20192;-53
2022/12/14 08:10:29;;;;;;;459.90;320.97;;;;;;;-6.01;70.22;100269.34;4162515;28;20768;-57
2022/12/14 08:12:31;;;;;;;453.70;291.63;;;;;;;-5.99;70.26;100264.88;4167449;28;20675;-56
2022/12/14 08:14:34;;;;;;;463.00;311.07;;;;;;;-5.92;70.33;100272.41;4167402;28;20291;-57
2022/12/14 08:16:36;;;;;;;460.37;300.80;;;;;;;-5.86;70.29;100274.66;4165527;28;20322;-55
2022/12/14 08:18:38;;;;;;;466.10;326.57;;;;;;;-5.84;69.89;100271.03;4170087;28;20290;-56
2022/12/14 08:20:40;;;;;;;465.33;328.13;;;;;;;-5.80;70.25;100277.84;4167430;28;20317;-57
2022/12/14 08:22:43;;;;;;;456.30;293.90;;;;;;;-5.80;70.05;100267.31;4163381;28;20304;-57
2022/12/14 08:24:45;;;;;;;442.97;255.37;;;;;;;-5.76;70.03;100264.50;4174054;28;20299;-55
2022/12/14 08:26:49;;;;;;;444.00;256.47;;;;;;;-5.75;70.09;100263.56;4157613;28;20753;-57
2022/12/14 08:28:53;;;;;;;446.57;276.23;;;;;;;-5.75;70.20;100263.56;4161490;28;20262;-56
2022/12/14 08:30:56;;;;;;;453.40;305.37;;;;;;;-5.71;70.46;100252.78;4165689;28;20310;-54
2022/12/14 08:32:58;;;;;;;453.53;292.73;;;;;;;-5.66;70.40;100249.91;4162277;28;20275;-57
2022/12/14 08:35:01;;;;;;;458.43;313.13;;;;;;;-5.62;70.28;100252.28;4160465;28;20692;-53
2022/12/14 08:37:03;;;;;;;447.83;292.87;;;;;;;-5.58;69.80;100252.94;4162701;28;20282;-57
2022/12/14 08:39:07;;;;;;;428.10;223.17;;;;;;;-5.56;69.81;100248.47;4161837;28;20303;-55
2022/12/14 08:41:11;;;;;;;437.77;260.07;;;;;;;-5.53;69.60;100248.28;4161820;28;20630;-57
2022/12/14 08:43:15;;;;;;;434.13;240.80;;;;;;;-5.50;69.69;100255.16;4175282;28;20278;-59
2022/12/14 08:45:17;;;;;;;430.23;248.03;;;;;;;-5.46;69.50;100248.78;4177395;28;20286;-56
2022/12/14 08:47:19;;;;;;;427.07;231.33;;;;;;;-5.43;69.76;100246.00;4171410;28;20792;-58
2022/12/14 08:49:21;;;;;;;427.00;236.67;;;;;;;-5.41;69.63;100238.00;4162285;28;20234;-58
2022/12/14 08:51:25;;;;;;;422.37;222.83;;;;;;;-5.41;69.53;100245.91;4161166;28;20354;-55
2022/12/14 08:53:28;;;;;;;429.27;232.67;;;;;;;-5.39;69.81;100246.66;4161891;28;20291;-57
2022/12/14 08:55:31;;;;;;;424.73;228.00;;;;;;;-5.35;69.90;100242.94;4163397;28;20306;-57
2022/12/14 08:57:33;;;;;;;429.07;243.33;;;;;;;-5.32;70.33;100234.84;4172819;28;20289;-55
2022/12/14 08:59:37;;;;;;;420.77;215.70;;;;;;;-5.28;70.18;100239.84;4163326;28;20294;-55
2022/12/14 09:01:39;;;;;;;423.57;221.50;;;;;;;-5.23;69.94;100236.97;4163625;28;21302;-55
2022/12/14 09:03:43;;;;;;;422.53;224.00;;;;;;;-5.18;70.18;100236.69;4173219;28;20708;-56
2022/12/14 09:05:45;;;;;;;427.87;243.03;;;;;;;-5.17;70.20;100225.22;4165500;28;20394;-56
2022/12/14 09:07:47;;;;;;;430.07;247.00;;;;;;;-5.10;70.14;100232.66;4161927;28;20330;-58
2022/12/14 09:09:50;;;;;;;434.60;255.47;;;;;;;-5.07;69.95;100229.00;4165438;28;20567;-58
2022/12/14 09:11:53;;;;;;;451.87;294.40;;;;;;;-5.03;69.80;100229.66;4170543;28;20224;-58
2022/12/14 09:13:56;;;;;;;463.43;332.97;;;;;;;-5.02;69.80;100228.75;4161587;28;20283;-53
2022/12/14 09:16:01;;;;;;;462.50;329.07;;;;;;;-4.97;69.91;100229.31;4165017;28;20305;-57
2022/12/14 09:18:04;;;;;;;459.73;336.73;;;;;;;-4.98;69.88;100232.91;4166257;28;20604;-56
2022/12/14 09:20:07;;;;;;;443.43;289.50;;;;;;;-4.96;69.79;100228.38;4166840;28;20682;-53
2022/12/14 09:22:12;;;;;;;449.73;307.23;;;;;;;-4.95;69.58;100228.28;4169455;28;20270;-54
2022/12/14 09:24:14;;;;;;;452.00;323.97;;;;;;;-4.90;69.71;100225.41;4159193;28;20291;-56
2022/12/14 09:26:18;;;;;;;457.83;335.33;;;;;;;-4.87;70.05;100219.94;4162654;28;20330;-58
2022/12/14 09:28:20;;;;;;;465.83;346.47;;;;;;;-4.78;69.91;100223.81;4166252;28;20320;-59